Flight Track Log - Related Links

Times and Time Zones

All times are in EST time to prevent confusion due to time zone crossing. See the N913CS flight status page for this flight to view local times or setup timezone preferences in your user account.

Time Position Orientation Groundspeed Altitude Reporting Facility
EST Latitude Longitude Course Direction KTS MPH feet Rate Location/Type
Mon 10:15:42 AM 39.1833 -76.8000 284° West 247 284 5,800  Level Potomac TRACON
Mon 10:16:42 AM 39.2000 -76.8833 284° West 221 254 10,300 3,298 Climbing Potomac TRACON
Mon 10:18:13 AM 39.1969 -77.0083 268° West 242 278 14,100 2,487 Climbing Washington Center
Mon 10:19:14 AM 39.1686 -77.0936 247° West 248 285 16,600 2,231 Climbing Washington Center
Mon 10:20:14 AM 39.1344 -77.1758 242° Southwest 254 292 18,600 1,636 Climbing Washington Center
Mon 10:21:15 AM 39.0997 -77.2658 244° Southwest 264 304 19,900 1,220 Climbing Washington Center
Mon 10:22:12 AM 39.0628 -77.3667 245° Southwest 290 334 21,000 1,068 Climbing Washington Center
Mon 10:23:13 AM 39.0239 -77.4672 244° Southwest 307 353 22,000 1,091 Climbing Washington Center
Mon 10:24:13 AM 38.9847 -77.5731 245° Southwest 325 374 23,200 1,190 Climbing Washington Center
Mon 10:25:14 AM 38.9497 -77.6628 243° Southwest 325 374 24,400 1,250 Climbing Washington Center
Mon 10:26:13 AM 38.9456 -77.7856 268° West 316 364 25,700 1,210 Climbing Washington Center
Mon 10:27:13 AM 38.9436 -77.8869 269° West 316 364 26,800 645 Climbing Washington Center
Mon 10:28:14 AM 38.9456 -77.9964 271° West 316 364 27,000 605 Climbing Washington Center
Mon 10:29:12 AM 38.9536 -78.1114 275° West 316 364 28,000 1,008 Climbing Washington Center
Mon 10:30:13 AM 38.9597 -78.2239 274° West 316 364 29,000 992 Climbing Washington Center
Mon 10:31:13 AM 38.9633 -78.3386 272° West 321 369 30,000 992 Climbing Washington Center
Mon 10:32:14 AM 38.9669 -78.4536 272° West 321 369 31,000 976 Climbing Washington Center
Mon 10:33:16 AM 38.9706 -78.5661 272° West 321 369 32,000 958 Climbing Washington Center
Mon 10:34:13 AM 38.9739 -78.6783 272° West 321 369 32,900 966 Climbing Washington Center
Mon 10:35:14 AM 38.9772 -78.7906 272° West 321 369 33,900 984 Climbing Washington Center
Mon 10:36:15 AM 38.9803 -78.9028 272° West 321 369 34,900 1,210 Climbing Washington Center
Mon 10:37:13 AM 38.9836 -79.0125 272° West 321 369 36,300 1,513 Climbing Washington Center
Mon 10:38:14 AM 38.9847 -79.1167 271° West 311 358 37,900 836 Climbing Washington Center
Mon 10:39:15 AM 38.9878 -79.2211 272° West 304 350 38,000 51 Climbing Washington Center
Mon 10:40:12 AM 38.9908 -79.3281 272° West 304 350 38,000  Level Washington Center
Mon 10:41:13 AM 38.9917 -79.4350 271° West 304 350 38,000  Level Washington Center
Mon 10:42:14 AM 38.9964 -79.5447 273° West 304 350 38,000  Level Washington Center
Mon 10:43:14 AM 38.9989 -79.6597 272° West 317 365 38,000  Level Washington Center
Mon 10:44:14 AM 39.0014 -79.7692 272° West 317 365 38,000  Level Washington Center
Mon 10:46:07 AM 39.0019 -79.9728 270° West 310 357 38,000  Level Indianapolis Center
Mon 10:47:08 AM 39.0039 -80.0811 271° West 310 357 38,000  Level Indianapolis Center
Mon 10:48:10 AM 39.0056 -80.1939 271° West 307 353 38,000  Level Indianapolis Center
Mon 10:49:11 AM 39.0056 -80.3003 270° West 302 348 38,000  Level Indianapolis Center
Mon 10:50:12 AM 39.0083 -80.4056 272° West 299 344 38,000  Level Indianapolis Center
Mon 10:51:14 AM 39.0092 -80.5344 271° West 299 344 38,000  Level Indianapolis Center
Mon 10:52:15 AM 39.0114 -80.6433 272° West 300 345 38,000  Level Indianapolis Center
Mon 10:53:16 AM 39.0136 -80.7564 271° West 309 356 38,000  Level Indianapolis Center
Mon 10:54:17 AM 39.0303 -80.8678 281° West 326 375 38,000  Level Indianapolis Center
Mon 10:55:19 AM 39.0669 -80.9797 293° West 340 391 38,000  Level Indianapolis Center
Mon 10:56:20 AM 39.1014 -81.0914 292° West 339 390 38,000  Level Indianapolis Center
Mon 10:57:21 AM 39.1383 -81.2033 293° West 339 390 38,000  Level Indianapolis Center
Mon 10:58:22 AM 39.1739 -81.3153 292° West 339 390 38,000  Level Indianapolis Center
Mon 10:59:24 AM 39.2097 -81.4297 292° West 341 392 38,000  Level Indianapolis Center
Mon 11:00:25 AM 39.2539 -81.5692 292° West 347 399 38,000  Level Indianapolis Center
Mon 11:01:26 AM 39.2908 -81.6850 292° West 347 399 38,000  Level Indianapolis Center
Mon 11:02:27 AM 39.3275 -81.8008 292° West 348 400 38,000  Level Indianapolis Center
Mon 11:04:30 AM 39.4003 -82.0364 292° West 351 404 38,000  Level Indianapolis Center
Mon 11:05:31 AM 39.4367 -82.1561 292° West 352 405 38,000  Level Indianapolis Center
Mon 11:06:32 AM 39.4769 -82.2864 292° West 354 407 38,000  Level Indianapolis Center
Mon 11:07:33 AM 39.5125 -82.4044 291° West 354 407 38,000  Level Indianapolis Center
Mon 11:08:34 AM 39.5489 -82.5231 292° West 355 409 38,000  Level Indianapolis Center
Mon 11:09:36 AM 39.5847 -82.6425 291° West 355 409 38,000  Level Indianapolis Center
Mon 11:10:37 AM 39.6219 -82.7617 292° West 356 410 38,000  Level Indianapolis Center
Mon 11:11:38 AM 39.6572 -82.8817 291° West 356 410 38,000  Level Indianapolis Center
Mon 11:13:25 AM 39.7214 -83.0956 291° West 358 412 38,000  Level Chicago Center
Mon 11:14:26 AM 39.7572 -83.2131 292° West 354 407 38,000  Level Chicago Center
Mon 11:15:28 AM 39.7911 -83.3317 290° West 352 405 38,000  Level Chicago Center
Mon 11:16:29 AM 39.8267 -83.4497 291° West 351 404 38,000  Level Chicago Center
Mon 11:17:31 AM 39.8672 -83.5911 291° West 349 402 38,000  Level Chicago Center
Mon 11:18:32 AM 39.9033 -83.7081 292° West 350 403 38,000  Level Chicago Center
Mon 11:19:34 AM 39.9356 -83.8269 290° West 350 403 38,000  Level Chicago Center
Mon 11:20:35 AM 39.9706 -83.9461 291° West 351 404 38,000  Level Chicago Center
Mon 11:21:37 AM 40.0056 -84.0650 291° West 352 405 38,000  Level Chicago Center
Mon 11:22:38 AM 40.0375 -84.1850 289° West 352 405 38,000  Level Chicago Center
Mon 11:23:40 AM 40.0722 -84.3075 290° West 358 412 38,000  Level Chicago Center
Mon 11:24:41 AM 40.1081 -84.4294 291° West 360 414 38,000  Level Chicago Center
Mon 11:25:55 AM 40.1542 -84.5928 290° West 359 413 38,000  Level Indianapolis Center
Mon 11:26:56 AM 40.1881 -84.7161 290° West 359 413 38,000  Level Indianapolis Center
Mon 11:27:57 AM 40.2225 -84.8406 290° West 361 415 38,000  Level Indianapolis Center
Mon 11:28:58 AM 40.2594 -84.9739 290° West 361 415 38,000  Level Indianapolis Center
Mon 11:30:00 AM 40.2939 -85.0972 290° West 362 417 38,000  Level Indianapolis Center
Mon 11:31:01 AM 40.3272 -85.2186 290° West 360 414 38,000  Level Indianapolis Center
Mon 11:32:02 AM 40.3594 -85.3369 290° West 351 404 38,000  Level Indianapolis Center
Mon 11:32:54 AM 40.3914 -85.4553 290° West 349 402 38,000  Level Chicago Center
Mon 11:33:55 AM 40.4261 -85.5803 290° West 363 418 38,000  Level Chicago Center
Mon 11:34:57 AM 40.4608 -85.7069 290° West 369 425 38,000  Level Chicago Center
Mon 11:35:58 AM 40.4933 -85.8289 289° West 359 413 38,000  Level Chicago Center
Mon 11:37:00 AM 40.5250 -85.9500 289° West 354 407 38,000  Level Chicago Center
Mon 11:38:01 AM 40.5586 -86.0728 290° West 359 413 38,000  Level Chicago Center
Mon 11:39:03 AM 40.5911 -86.1964 289° West 359 413 38,000  Level Chicago Center
Mon 11:40:04 AM 40.6297 -86.3450 289° West 359 413 38,000  Level Chicago Center
Mon 11:41:06 AM 40.6625 -86.4683 289° West 360 414 38,000  Level Chicago Center
Mon 11:42:08 AM 40.6947 -86.5919 289° West 359 413 38,000  Level Chicago Center
Mon 11:43:09 AM 40.7231 -86.7056 288° West 352 405 38,000  Level Chicago Center
Mon 11:44:11 AM 40.7594 -86.8458 289° West 348 400 38,000  Level Chicago Center
Mon 11:45:13 AM 40.7897 -86.9664 288° West 348 400 38,000  Level Chicago Center
Mon 11:46:15 AM 40.8214 -87.0867 289° West 347 399 38,000  Level Chicago Center
Mon 11:47:16 AM 40.8517 -87.2083 288° West 349 402 38,000  Level Chicago Center
Mon 11:48:19 AM 40.8822 -87.3300 288° West 349 402 38,000  Level Chicago Center
Mon 11:49:20 AM 40.9136 -87.4536 289° West 352 405 38,000  Level Chicago Center
Mon 11:50:21 AM 40.9503 -87.6025 288° West 355 409 38,000  Level Chicago Center
Mon 11:51:23 AM 40.9806 -87.7261 288° West 354 407 38,000  Level Chicago Center
Mon 11:52:25 AM 41.0114 -87.8514 288° West 355 409 38,000  Level Chicago Center
Mon 11:53:27 AM 41.0433 -87.9750 289° West 354 407 38,000  Level Chicago Center
Mon 11:54:28 AM 41.0739 -88.0992 288° West 352 405 38,000  Level Chicago Center
Mon 11:55:30 AM 41.1039 -88.2233 288° West 350 403 38,000 -242 Level Chicago Center
Mon 11:56:32 AM 41.1342 -88.3489 288° West 353 406 37,500 -732 Descending Chicago Center
Mon 11:57:33 AM 41.1633 -88.4706 288° West 348 400 36,500 -1,024 Descending Chicago Center
Mon 11:58:35 AM 41.1925 -88.5931 288° West 346 398 35,400 -1,113 Descending Chicago Center
Mon 11:59:37 AM 41.2264 -88.7417 287° West 349 402 34,200 -1,065 Descending Chicago Center
Mon 12:00:39 PM 41.2575 -88.8678 288° West 357 411 33,200 -976 Descending Chicago Center
Mon 12:01:40 PM 41.2853 -88.9908 287° West 351 404 32,200 -585 Descending Chicago Center
Mon 12:02:42 PM 41.3142 -89.1100 288° West 343 395 32,000 -97 Descending Chicago Center
Mon 12:03:44 PM 41.3444 -89.2386 287° West 356 410 32,000  Level Chicago Center
Mon 12:04:46 PM 41.3731 -89.3678 286° West 364 419 32,000  Level Chicago Center
Mon 12:05:47 PM 41.4019 -89.4914 287° West 356 410 32,000 -293 Level Chicago Center
Mon 12:06:49 PM 41.4300 -89.6142 287° West 351 404 31,400 -823 Descending Chicago Center
Mon 12:07:51 PM 41.4622 -89.7583 287° West 343 395 30,300 -1,016 Descending Chicago Center
Mon 12:08:53 PM 41.4925 -89.8869 287° West 357 411 29,300 -968 Descending Chicago Center
Mon 12:09:55 PM 41.5211 -90.0167 286° West 363 418 28,300 -1,220 Descending Chicago Center
Mon 12:10:56 PM 41.5497 -90.1456 287° West 364 419 26,800 -1,659 Descending Chicago Center
Mon 12:11:58 PM 41.5781 -90.2778 286° West 368 423 24,900 -1,887 Descending Chicago Center
Mon 12:13:00 PM 41.6058 -90.4061 286° West 363 418 22,900 -2,226 Descending Chicago Center
Mon 12:14:02 PM 41.6389 -90.5519 287° West 345 397 20,300 -2,341 Descending Chicago Center
Mon 12:15:03 PM 41.6622 -90.6603 286° West 346 398 18,100 -1,951 Descending Chicago Center
Mon 12:16:05 PM 41.6872 -90.7806 286° West 338 389 16,300 -2,323 Descending Chicago Center
Mon 12:17:07 PM 41.7169 -90.9153 287° West 319 367 13,300 -2,195 Descending Chicago Center
Mon 12:18:08 PM 41.7400 -91.0225 286° West 305 351 11,800 -1,122 Descending Chicago Center
Mon 12:19:10 PM 41.7642 -91.1144 289° West 270 311 11,000 -1,306 Descending Chicago Center
Mon 12:20:12 PM 41.7856 -91.2036 288° West 255 293 9,100 -2,032 Descending Chicago Center
Mon 12:21:14 PM 41.8100 -91.2908 291° West 252 290 6,800 -2,098 Descending Chicago Center
Mon 12:22:15 PM 41.8319 -91.3778 289° West 250 288 4,800 -1,659 Descending Chicago Center
Mon 12:23:17 PM 41.8517 -91.4761 285° West 240 276 3,400 -1,065 Descending Chicago Center
Mon 12:24:19 PM 41.8658 -91.5514 284° West 227 261 2,600 -629 Descending Chicago Center
Mon 12:25:21 PM 41.8786 -91.6181 284° West 210 242 2,100 -484 Descending Chicago Center
Mon 12:27:00 PM 41.8833 -91.7000 294° West  Level FlightAware Approximate
Mon 12:34:00 PM 41.8847 -91.7108 294° West  Level Estimated
Mon 12:35:00 PM 41.8847 -91.7108 294° West  Level Estimated

Login

Don't have an account? Register now (free) for customized features, flight alerts, and more!